Time,TemperatureF,DewpointF,PressureIn,WindDirection,WindDirectionDegrees,WindSpeedMPH,WindSpeedGustMPH,Humidity,HourlyPrecipIn,Conditions,Clouds,dailyrainin,SoftwareType,DateUTC
2013-02-05 00:14:00,33.8,29.8,29.99,NNW,335,4.0,7.0,85,0.00,,,0.00,Wunderground v.1.15,2013-02-05 05:14:00,
2013-02-05 00:24:00,34.6,30.0,29.99,NNW,333,4.0,7.0,83,0.00,,,0.00,Wunderground v.1.15,2013-02-05 05:24:00,
2013-02-05 00:29:00,34.7,29.8,29.99,NW,323,4.0,7.0,82,0.00,,,0.00,Wunderground v.1.15,2013-02-05 05:29:00,
2013-02-05 00:39:00,34.9,30.0,29.98,NW,323,5.0,7.0,82,0.00,,,0.00,Wunderground v.1.15,2013-02-05 05:39:00,
2013-02-05 00:54:00,35.2,30.0,29.98,NW,323,3.0,11.0,81,0.00,,,0.00,Wunderground v.1.15,2013-02-05 05:54:00,
2013-02-05 01:14:00,34.9,30.6,29.98,NW,318,4.0,11.0,84,0.00,,,0.00,Wunderground v.1.15,2013-02-05 06:14:00,
2013-02-05 01:24:00,35.0,30.7,29.97,WNW,295,4.0,11.0,84,0.00,,,0.00,Wunderground v.1.15,2013-02-05 06:24:00,
2013-02-05 01:29:00,35.0,30.7,29.97,WNW,295,4.0,11.0,84,0.00,,,0.00,Wunderground v.1.15,2013-02-05 06:29:00,
2013-02-05 01:39:00,34.7,30.7,29.97,WNW,295,4.0,11.0,85,0.00,,,0.00,Wunderground v.1.15,2013-02-05 06:39:00,
2013-02-05 01:49:00,34.6,30.8,29.96,WNW,295,4.0,11.0,86,0.00,,,0.00,Wunderground v.1.15,2013-02-05 06:49:00,
2013-02-05 01:54:00,34.6,31.1,29.96,WNW,295,3.0,15.0,87,0.00,,,0.00,Wunderground v.1.15,2013-02-05 06:54:00,
2013-02-05 02:34:00,34.7,31.2,29.96,WNW,295,4.0,15.0,87,0.00,,,0.00,Wunderground v.1.15,2013-02-05 07:34:00,
2013-02-05 02:49:00,35.3,32.1,29.96,WNW,295,2.0,2.0,88,0.00,,,0.00,Wunderground v.1.15,2013-02-05 07:49:00,
2013-02-05 03:09:00,35.5,32.0,29.96,WNW,295,0.0,11.0,87,0.00,,,0.00,Wunderground v.1.15,2013-02-05 08:09:00,
2013-02-05 03:24:00,33.1,29.9,29.96,WNW,295,1.0,1.0,88,0.00,,,0.00,Wunderground v.1.15,2013-02-05 08:24:00,
2013-02-05 03:34:00,34.6,31.7,29.96,WNW,295,2.0,2.0,89,0.00,,,0.00,Wunderground v.1.15,2013-02-05 08:34:00,
2013-02-05 03:53:00,32.1,29.2,29.97,WNW,295,2.0,2.0,89,0.00,,,0.00,Wunderground v.1.15,2013-02-05 08:53:00,
2013-02-05 04:13:00,33.7,31.1,29.97,NW,306,3.0,3.0,90,0.00,,,0.00,Wunderground v.1.15,2013-02-05 09:13:00,
2013-02-05 04:23:00,33.8,31.7,29.97,NW,306,3.0,9.0,92,0.00,,,0.00,Wunderground v.1.15,2013-02-05 09:23:00,
2013-02-05 04:28:00,34.0,31.4,29.97,NW,306,4.0,9.0,90,0.00,,,0.00,Wunderground v.1.15,2013-02-05 09:28:00,
2013-02-05 04:38:00,34.1,31.5,29.97,NW,306,5.0,5.0,90,0.00,,,0.00,Wunderground v.1.15,2013-02-05 09:38:00,
2013-02-05 04:53:00,34.0,31.4,29.98,NW,306,2.0,2.0,90,0.00,,,0.00,Wunderground v.1.15,2013-02-05 09:53:00,
2013-02-05 05:13:00,34.4,31.5,29.98,NW,309,1.0,1.0,89,0.00,,,0.00,Wunderground v.1.15,2013-02-05 10:13:00,
2013-02-05 05:18:00,34.4,31.5,29.99,NW,309,1.0,14.0,89,0.00,,,0.00,Wunderground v.1.15,2013-02-05 10:18:00,
2013-02-05 05:28:00,34.3,31.4,29.99,NW,309,0.0,14.0,89,0.00,,,0.00,Wunderground v.1.15,2013-02-05 10:28:00,
2013-02-05 05:38:00,34.4,31.8,29.99,NW,309,2.0,2.0,90,0.00,,,0.01,Wunderground v.1.15,2013-02-05 10:38:00,
2013-02-05 05:43:00,34.4,31.8,29.99,NW,309,3.0,3.0,90,0.00,,,0.01,Wunderground v.1.15,2013-02-05 10:43:00,
2013-02-05 05:53:00,34.0,31.6,29.99,NW,309,2.0,14.0,91,0.00,,,0.02,Wunderground v.1.15,2013-02-05 10:53:00,
2013-02-05 06:08:00,33.7,31.6,29.99,NW,309,1.0,1.0,92,0.00,,,0.02,Wunderground v.1.15,2013-02-05 11:08:00,
2013-02-05 06:13:00,33.7,31.6,29.99,NW,309,0.0,14.0,92,0.00,,,0.02,Wunderground v.1.15,2013-02-05 11:13:00,
2013-02-05 06:23:00,33.4,31.3,30.00,NW,309,1.0,14.0,92,0.00,,,0.02,Wunderground v.1.15,2013-02-05 11:23:00,
2013-02-05 06:33:00,33.4,31.6,30.00,NW,309,2.0,14.0,93,0.00,,,0.03,Wunderground v.1.15,2013-02-05 11:33:00,
2013-02-05 06:48:00,34.0,31.4,30.01,NW,319,8.0,8.0,90,0.00,,,0.03,Wunderground v.1.15,2013-02-05 11:48:00,
2013-02-05 06:58:00,34.1,30.6,30.01,NW,319,8.0,8.0,87,0.00,,,0.03,Wunderground v.1.15,2013-02-05 11:58:00,
2013-02-05 07:08:00,33.8,30.6,30.01,NW,320,5.0,5.0,88,0.00,,,0.04,Wunderground v.1.15,2013-02-05 12:08:00,
2013-02-05 07:18:00,33.8,30.3,30.01,NW,319,4.0,4.0,87,0.00,,,0.04,Wunderground v.1.15,2013-02-05 12:18:00,
2013-02-05 07:23:00,33.7,30.5,30.01,NW,319,3.0,19.0,88,0.00,,,0.04,Wunderground v.1.15,2013-02-05 12:23:00,
2013-02-05 07:33:00,33.4,29.9,30.02,NW,319,1.0,19.0,87,0.00,,,0.04,Wunderground v.1.15,2013-02-05 12:33:00,
2013-02-05 07:43:00,33.4,29.9,30.02,WNW,301,4.0,19.0,87,0.00,,,0.04,Wunderground v.1.15,2013-02-05 12:43:00,
2013-02-05 07:48:00,34.0,29.4,30.02,NW,315,7.0,19.0,83,0.00,,,0.04,Wunderground v.1.15,2013-02-05 12:48:00,
2013-02-05 07:58:00,34.1,28.9,30.02,West,281,9.0,22.0,81,0.00,,,0.04,Wunderground v.1.15,2013-02-05 12:58:00,
2013-02-05 09:38:00,33.5,28.6,30.04,NW,315,2.0,19.0,82,0.00,,,0.05,Wunderground v.1.15,2013-02-05 14:38:00,
2013-02-05 09:48:00,33.7,28.8,30.04,NW,317,3.0,19.0,82,0.00,,,0.05,Wunderground v.1.15,2013-02-05 14:48:00,
2013-02-05 09:58:00,33.7,28.8,30.04,NW,317,0.0,12.0,82,0.00,,,0.05,Wunderground v.1.15,2013-02-05 14:58:00,
2013-02-05 10:08:00,34.0,29.1,30.03,NW,317,0.0,12.0,82,0.00,,,0.05,Wunderground v.1.15,2013-02-05 15:08:00,
2013-02-05 10:13:00,34.0,29.1,30.03,NW,317,0.0,12.0,82,0.00,,,0.05,Wunderground v.1.15,2013-02-05 15:13:00,
2013-02-05 10:23:00,34.3,29.7,30.02,NW,317,1.0,12.0,83,0.00,,,0.05,Wunderground v.1.15,2013-02-05 15:23:00,
2013-02-05 10:38:00,34.7,29.2,30.02,NW,317,1.0,1.0,80,0.00,,,0.06,Wunderground v.1.15,2013-02-05 15:38:00,
2013-02-05 10:48:00,34.9,29.4,30.02,NW,317,0.0,12.0,80,0.00,,,0.06,Wunderground v.1.15,2013-02-05 15:48:00,
2013-02-05 11:13:00,35.3,29.4,30.02,NW,317,0.0,4.0,79,0.00,,,0.07,Wunderground v.1.15,2013-02-05 16:13:00,
2013-02-05 11:18:00,35.3,29.4,30.02,NW,317,1.0,4.0,79,0.00,,,0.07,Wunderground v.1.15,2013-02-05 16:18:00,
2013-02-05 11:28:00,35.2,30.0,30.02,NW,317,1.0,1.0,81,0.00,,,0.07,Wunderground v.1.15,2013-02-05 16:28:00,
2013-02-05 11:43:00,35.2,30.3,30.01,NW,317,1.0,4.0,82,0.00,,,0.07,Wunderground v.1.15,2013-02-05 16:43:00,
2013-02-05 11:58:00,35.3,29.7,30.01,NW,317,0.0,4.0,80,0.00,,,0.08,Wunderground v.1.15,2013-02-05 16:58:00,
2013-02-05 12:08:00,35.0,30.1,30.00,NW,317,2.0,4.0,82,0.00,,,0.08,Wunderground v.1.15,2013-02-05 17:08:00,
2013-02-05 12:18:00,34.1,29.5,29.99,NW,317,3.0,4.0,83,0.00,,,0.08,Wunderground v.1.15,2013-02-05 17:18:00,
2013-02-05 12:23:00,33.8,29.2,29.99,NW,317,3.0,4.0,83,0.00,,,0.08,Wunderground v.1.15,2013-02-05 17:23:00,
2013-02-05 12:33:00,33.4,29.4,29.99,NW,317,2.0,2.0,85,0.00,,,0.08,Wunderground v.1.15,2013-02-05 17:33:00,
2013-02-05 12:38:00,33.2,29.5,29.99,NW,317,1.0,4.0,86,0.00,,,0.08,Wunderground v.1.15,2013-02-05 17:38:00,
2013-02-05 12:48:00,33.7,30.5,29.98,NW,317,0.0,4.0,88,0.00,,,0.08,Wunderground v.1.15,2013-02-05 17:48:00,
2013-02-05 12:58:00,34.3,31.7,29.98,NW,317,2.0,5.0,90,0.00,,,0.09,Wunderground v.1.15,2013-02-05 17:58:00,
2013-02-05 13:08:00,34.9,32.3,29.97,NW,317,1.0,1.0,90,0.00,,,0.09,Wunderground v.1.15,2013-02-05 18:08:00,
2013-02-05 13:19:00,35.6,33.0,29.96,NW,317,0.0,5.0,90,0.00,,,0.10,Wunderground v.1.15,2013-02-05 18:19:00,
2013-02-05 13:38:00,34.6,32.2,29.96,NW,317,1.0,1.0,91,0.00,,,0.10,Wunderground v.1.15,2013-02-05 18:38:00,
2013-02-05 13:53:00,35.2,32.8,29.95,NW,317,0.0,5.0,91,0.00,,,0.10,Wunderground v.1.15,2013-02-05 18:53:00,
2013-02-05 14:29:00,35.9,32.7,29.95,NW,317,0.0,5.0,88,0.00,,,0.11,Wunderground v.1.15,2013-02-05 19:29:00,
2013-02-05 14:53:00,36.2,32.1,29.94,NW,317,1.0,5.0,85,0.00,,,0.11,Wunderground v.1.15,2013-02-05 19:53:00,
2013-02-05 15:24:00,38.3,31.4,29.95,NW,310,5.0,7.0,76,0.00,,,0.12,Wunderground v.1.15,2013-02-05 20:24:00,
2013-02-05 15:34:00,38.3,31.1,29.96,NW,323,6.0,6.0,75,0.00,,,0.12,Wunderground v.1.15,2013-02-05 20:34:00,
2013-02-05 15:44:00,38.3,31.4,29.96,WNW,286,6.0,16.0,76,0.00,,,0.12,Wunderground v.1.15,2013-02-05 20:44:00,
2013-02-05 16:14:00,38.3,29.7,29.95,WNW,298,11.0,29.0,71,0.00,,,0.01,Wunderground v.1.15,2013-02-05 21:14:00,
2013-02-05 16:29:00,38.5,29.2,29.95,West,273,12.0,12.0,69,0.00,,,0.01,Wunderground v.1.15,2013-02-05 21:29:00,
2013-02-05 16:34:00,38.5,28.9,29.95,WNW,296,13.0,15.0,68,0.00,,,0.01,Wunderground v.1.15,2013-02-05 21:34:00,
2013-02-05 16:44:00,38.2,28.6,29.95,WNW,294,13.0,13.0,68,0.00,,,0.01,Wunderground v.1.15,2013-02-05 21:44:00,
2013-02-05 17:09:00,37.6,28.0,29.96,NW,307,14.0,33.0,68,0.00,,,0.01,Wunderground v.1.15,2013-02-05 22:09:00,
2013-02-05 17:19:00,37.2,28.3,29.97,WNW,286,14.0,14.0,70,0.00,,,0.01,Wunderground v.1.15,2013-02-05 22:19:00,
2013-02-05 17:34:00,36.9,28.0,29.97,WNW,293,13.0,33.0,70,0.00,,,0.01,Wunderground v.1.15,2013-02-05 22:34:00,
2013-02-05 17:44:00,36.6,28.4,29.97,NW,314,11.0,33.0,72,0.00,,,0.01,Wunderground v.1.15,2013-02-05 22:44:00,
2013-02-05 17:59:00,36.0,28.2,29.97,NW,317,10.0,35.0,73,0.00,,,0.01,Wunderground v.1.15,2013-02-05 22:59:00,
2013-02-05 18:19:00,35.3,28.8,29.98,NW,310,13.0,35.0,77,0.00,,,0.01,Wunderground v.1.15,2013-02-05 23:19:00,
2013-02-05 18:29:00,34.9,29.4,29.98,NW,317,13.0,35.0,80,0.00,,,0.01,Wunderground v.1.15,2013-02-05 23:29:00,
2013-02-05 18:44:00,34.7,29.8,29.98,NW,309,11.0,11.0,82,0.00,,,0.01,Wunderground v.1.15,2013-02-05 23:44:00,
2013-02-05 19:14:00,34.0,30.3,30.00,West,279,7.0,7.0,86,0.00,,,0.01,Wunderground v.1.15,2013-02-06 00:14:00,
2013-02-05 19:24:00,33.7,30.0,30.00,NW,325,6.0,26.0,86,0.00,,,0.01,Wunderground v.1.15,2013-02-06 00:24:00,
2013-02-05 19:34:00,33.8,29.5,30.00,NW,316,8.0,26.0,84,0.00,,,0.01,Wunderground v.1.15,2013-02-06 00:34:00,
2013-02-05 19:39:00,33.8,28.9,30.00,NW,304,8.0,26.0,82,0.00,,,0.01,Wunderground v.1.15,2013-02-06 00:39:00,
2013-02-05 19:49:00,34.0,28.2,30.01,NW,324,11.0,26.0,79,0.00,,,0.01,Wunderground v.1.15,2013-02-06 00:49:00,
2013-02-05 20:14:00,33.2,28.3,30.01,WNW,289,11.0,11.0,82,0.00,,,0.01,Wunderground v.1.15,2013-02-06 01:14:00,
2013-02-05 20:24:00,32.8,28.8,30.01,West,279,10.0,22.0,85,0.00,,,0.01,Wunderground v.1.15,2013-02-06 01:24:00,
2013-02-05 20:29:00,32.8,28.8,30.01,NW,326,10.0,22.0,85,0.00,,,0.01,Wunderground v.1.15,2013-02-06 01:29:00,
2013-02-05 20:34:00,32.7,29.0,30.02,NW,312,8.0,22.0,86,0.00,,,0.01,Wunderground v.1.15,2013-02-06 01:34:00,
2013-02-05 20:44:00,32.7,29.3,30.02,NNW,332,10.0,22.0,87,0.00,,,0.01,Wunderground v.1.15,2013-02-06 01:44:00,
2013-02-05 20:54:00,32.8,29.4,30.03,NW,310,12.0,12.0,87,0.00,,,0.01,Wunderground v.1.15,2013-02-06 01:54:00,
2013-02-05 21:14:00,32.8,29.1,30.03,NW,326,10.0,10.0,86,0.00,,,0.01,Wunderground v.1.15,2013-02-06 02:14:00,
2013-02-05 21:19:00,32.9,29.2,30.03,NW,304,9.0,26.0,86,0.00,,,0.01,Wunderground v.1.15,2013-02-06 02:19:00,
2013-02-05 21:29:00,32.9,29.5,30.03,NW,308,10.0,26.0,87,0.00,,,0.01,Wunderground v.1.15,2013-02-06 02:29:00,
2013-02-05 21:34:00,32.8,29.6,30.04,WNW,296,10.0,26.0,88,0.00,,,0.01,Wunderground v.1.15,2013-02-06 02:34:00,
2013-02-05 21:44:00,32.7,29.3,30.04,NW,311,7.0,7.0,87,0.00,,,0.01,Wunderground v.1.15,2013-02-06 02:44:00,
2013-02-05 21:59:00,32.8,29.9,30.04,NW,320,10.0,28.0,89,0.00,,,0.01,Wunderground v.1.15,2013-02-06 02:59:00,
2013-02-05 22:09:00,32.9,29.7,30.04,NW,304,11.0,11.0,88,0.00,,,0.01,Wunderground v.1.15,2013-02-06 03:09:00,
2013-02-05 22:19:00,33.1,29.7,30.04,NW,321,12.0,28.0,87,0.00,,,0.01,Wunderground v.1.15,2013-02-06 03:19:00,
2013-02-05 22:29:00,33.2,29.5,30.04,WNW,302,13.0,13.0,86,0.00,,,0.01,Wunderground v.1.15,2013-02-06 03:29:00,
2013-02-05 22:39:00,33.4,29.7,30.04,NNW,329,14.0,14.0,86,0.00,,,0.01,Wunderground v.1.15,2013-02-06 03:39:00,
2013-02-05 22:54:00,34.0,29.4,30.04,NW,312,15.0,27.0,83,0.00,,,0.01,Wunderground v.1.15,2013-02-06 03:54:00,
2013-02-05 23:14:00,33.8,29.2,30.04,NNW,327,11.0,27.0,83,0.00,,,0.01,Wunderground v.1.15,2013-02-06 04:14:00,
2013-02-05 23:24:00,34.1,29.2,30.04,NW,313,12.0,12.0,82,0.00,,,0.01,Wunderground v.1.15,2013-02-06 04:24:00,
2013-02-05 23:29:00,34.1,29.2,30.04,NW,325,11.0,27.0,82,0.00,,,0.01,Wunderground v.1.15,2013-02-06 04:29:00,
2013-02-05 23:34:00,34.3,29.4,30.04,NW,317,10.0,27.0,82,0.00,,,0.01,Wunderground v.1.15,2013-02-06 04:34:00,
2013-02-05 23:44:00,34.3,29.4,30.04,NW,309,8.0,27.0,82,0.00,,,0.01,Wunderground v.1.15,2013-02-06 04:44:00,
2013-02-05 23:54:00,34.3,29.4,30.04,WNW,286,6.0,6.0,82,0.00,,,0.01,Wunderground v.1.15,2013-02-06 04:54:00,
2013-02-05 23:59:00,34.4,29.8,30.04,NW,323,7.0,7.0,83,0.00,,,0.01,Wunderground v.1.15,2013-02-06 04:59:00,